sensor_id;sensor_type;location;lat;lon;timestamp;P1;durP1;ratioP1;P2;durP2;ratioP2
16766;SDS011;8501;49.926;8.404;2023-05-07T00:00:32;3.75;;;2.08;;
16766;SDS011;8501;49.926;8.404;2023-05-07T00:02:59;3.45;;;2.33;;
16766;SDS011;8501;49.926;8.404;2023-05-07T00:05:24;3.67;;;2.17;;
16766;SDS011;8501;49.926;8.404;2023-05-07T00:07:50;2.97;;;2.13;;
16766;SDS011;8501;49.926;8.404;2023-05-07T00:10:17;3.10;;;2.40;;
16766;SDS011;8501;49.926;8.404;2023-05-07T00:12:43;2.50;;;2.30;;
16766;SDS011;8501;49.926;8.404;2023-05-07T00:15:09;3.35;;;2.40;;
16766;SDS011;8501;49.926;8.404;2023-05-07T00:17:35;2.78;;;2.20;;
16766;SDS011;8501;49.926;8.404;2023-05-07T00:20:01;3.33;;;2.50;;
16766;SDS011;8501;49.926;8.404;2023-05-07T00:22:28;4.20;;;2.30;;
16766;SDS011;8501;49.926;8.404;2023-05-07T00:24:55;3.33;;;2.35;;
16766;SDS011;8501;49.926;8.404;2023-05-07T00:27:20;3.55;;;2.25;;
16766;SDS011;8501;49.926;8.404;2023-05-07T00:29:47;6.95;;;2.60;;
16766;SDS011;8501;49.926;8.404;2023-05-07T00:32:12;3.25;;;2.50;;
16766;SDS011;8501;49.926;8.404;2023-05-07T00:34:38;2.38;;;2.17;;
16766;SDS011;8501;49.926;8.404;2023-05-07T00:37:04;3.30;;;2.40;;
16766;SDS011;8501;49.926;8.404;2023-05-07T00:39:32;2.60;;;2.40;;
16766;SDS011;8501;49.926;8.404;2023-05-07T00:41:58;4.28;;;2.60;;
16766;SDS011;8501;49.926;8.404;2023-05-07T00:44:25;3.75;;;2.50;;
16766;SDS011;8501;49.926;8.404;2023-05-07T00:46:51;3.47;;;2.42;;
16766;SDS011;8501;49.926;8.404;2023-05-07T00:49:17;4.00;;;2.30;;
16766;SDS011;8501;49.926;8.404;2023-05-07T00:51:43;2.67;;;2.20;;
16766;SDS011;8501;49.926;8.404;2023-05-07T00:54:09;3.15;;;2.60;;
16766;SDS011;8501;49.926;8.404;2023-05-07T00:56:36;3.55;;;2.30;;
16766;SDS011;8501;49.926;8.404;2023-05-07T00:59:02;2.72;;;2.53;;
16766;SDS011;8501;49.926;8.404;2023-05-07T01:01:28;4.18;;;2.45;;
16766;SDS011;8501;49.926;8.404;2023-05-07T01:03:54;3.00;;;2.30;;
16766;SDS011;8501;49.926;8.404;2023-05-07T01:06:20;2.80;;;2.50;;
16766;SDS011;8501;49.926;8.404;2023-05-07T01:08:48;4.22;;;2.42;;
16766;SDS011;8501;49.926;8.404;2023-05-07T01:11:15;4.00;;;2.60;;
16766;SDS011;8501;49.926;8.404;2023-05-07T01:13:44;3.83;;;2.63;;
16766;SDS011;8501;49.926;8.404;2023-05-07T01:16:10;3.50;;;2.45;;
16766;SDS011;8501;49.926;8.404;2023-05-07T01:18:35;2.67;;;2.33;;
16766;SDS011;8501;49.926;8.404;2023-05-07T01:21:01;3.95;;;2.47;;
16766;SDS011;8501;49.926;8.404;2023-05-07T01:23:29;3.15;;;2.45;;
16766;SDS011;8501;49.926;8.404;2023-05-07T01:25:55;2.88;;;2.60;;
16766;SDS011;8501;49.926;8.404;2023-05-07T01:28:21;7.18;;;2.72;;
16766;SDS011;8501;49.926;8.404;2023-05-07T01:30:48;4.05;;;2.45;;
16766;SDS011;8501;49.926;8.404;2023-05-07T01:33:21;3.42;;;2.90;;
16766;SDS011;8501;49.926;8.404;2023-05-07T01:35:48;3.22;;;2.70;;
16766;SDS011;8501;49.926;8.404;2023-05-07T01:38:16;3.72;;;2.80;;
16766;SDS011;8501;49.926;8.404;2023-05-07T01:40:43;3.97;;;2.65;;
16766;SDS011;8501;49.926;8.404;2023-05-07T01:43:09;3.65;;;2.58;;
16766;SDS011;8501;49.926;8.404;2023-05-07T01:45:35;3.50;;;2.70;;
16766;SDS011;8501;49.926;8.404;2023-05-07T01:48:02;4.90;;;2.60;;
16766;SDS011;8501;49.926;8.404;2023-05-07T01:50:28;4.13;;;2.63;;
16766;SDS011;8501;49.926;8.404;2023-05-07T01:52:55;4.50;;;2.90;;
16766;SDS011;8501;49.926;8.404;2023-05-07T01:55:21;3.90;;;2.70;;
16766;SDS011;8501;49.926;8.404;2023-05-07T01:57:47;4.80;;;2.70;;
16766;SDS011;8501;49.926;8.404;2023-05-07T02:00:12;3.08;;;2.60;;
16766;SDS011;8501;49.926;8.404;2023-05-07T02:02:38;4.88;;;2.88;;
16766;SDS011;8501;49.926;8.404;2023-05-07T02:05:03;4.50;;;2.90;;
16766;SDS011;8501;49.926;8.404;2023-05-07T02:07:29;4.75;;;2.85;;
16766;SDS011;8501;49.926;8.404;2023-05-07T02:09:55;4.75;;;2.80;;
16766;SDS011;8501;49.926;8.404;2023-05-07T02:12:21;3.80;;;2.58;;
16766;SDS011;8501;49.926;8.404;2023-05-07T02:14:47;3.50;;;2.72;;
16766;SDS011;8501;49.926;8.404;2023-05-07T02:17:12;5.55;;;2.78;;
16766;SDS011;8501;49.926;8.404;2023-05-07T02:19:38;4.05;;;2.80;;
16766;SDS011;8501;49.926;8.404;2023-05-07T02:22:03;3.33;;;2.72;;
16766;SDS011;8501;49.926;8.404;2023-05-07T02:24:29;2.80;;;2.50;;
16766;SDS011;8501;49.926;8.404;2023-05-07T02:26:55;3.85;;;2.83;;
16766;SDS011;8501;49.926;8.404;2023-05-07T02:29:20;3.08;;;2.78;;
16766;SDS011;8501;49.926;8.404;2023-05-07T02:31:46;3.03;;;2.72;;
16766;SDS011;8501;49.926;8.404;2023-05-07T02:34:15;3.67;;;2.63;;
16766;SDS011;8501;49.926;8.404;2023-05-07T02:36:41;4.40;;;2.65;;
16766;SDS011;8501;49.926;8.404;2023-05-07T02:39:07;3.67;;;2.70;;
16766;SDS011;8501;49.926;8.404;2023-05-07T02:41:32;3.80;;;2.75;;
16766;SDS011;8501;49.926;8.404;2023-05-07T02:43:58;2.90;;;2.63;;
16766;SDS011;8501;49.926;8.404;2023-05-07T02:46:23;3.00;;;2.70;;
16766;SDS011;8501;49.926;8.404;2023-05-07T02:48:49;6.10;;;2.85;;
16766;SDS011;8501;49.926;8.404;2023-05-07T02:51:17;4.47;;;2.80;;
16766;SDS011;8501;49.926;8.404;2023-05-07T02:53:44;3.22;;;2.60;;
16766;SDS011;8501;49.926;8.404;2023-05-07T02:56:10;3.03;;;2.70;;
16766;SDS011;8501;49.926;8.404;2023-05-07T02:58:36;2.95;;;2.63;;
16766;SDS011;8501;49.926;8.404;2023-05-07T03:01:04;4.07;;;2.83;;
16766;SDS011;8501;49.926;8.404;2023-05-07T03:03:32;3.17;;;2.60;;
16766;SDS011;8501;49.926;8.404;2023-05-07T03:05:58;4.05;;;3.00;;
16766;SDS011;8501;49.926;8.404;2023-05-07T03:08:24;3.88;;;2.95;;
16766;SDS011;8501;49.926;8.404;2023-05-07T03:10:49;3.40;;;2.72;;
16766;SDS011;8501;49.926;8.404;2023-05-07T03:13:15;4.35;;;3.03;;
16766;SDS011;8501;49.926;8.404;2023-05-07T03:15:41;4.95;;;2.60;;
16766;SDS011;8501;49.926;8.404;2023-05-07T03:18:06;4.93;;;2.78;;
16766;SDS011;8501;49.926;8.404;2023-05-07T03:20:32;3.80;;;2.92;;
16766;SDS011;8501;49.926;8.404;2023-05-07T03:22:57;3.20;;;2.40;;
16766;SDS011;8501;49.926;8.404;2023-05-07T03:25:23;4.50;;;2.80;;
16766;SDS011;8501;49.926;8.404;2023-05-07T03:27:49;3.10;;;2.55;;
16766;SDS011;8501;49.926;8.404;2023-05-07T03:30:14;3.03;;;2.70;;
16766;SDS011;8501;49.926;8.404;2023-05-07T03:32:40;3.10;;;2.78;;
16766;SDS011;8501;49.926;8.404;2023-05-07T03:35:06;3.70;;;2.72;;
16766;SDS011;8501;49.926;8.404;2023-05-07T03:37:32;3.53;;;3.00;;
16766;SDS011;8501;49.926;8.404;2023-05-07T03:39:57;5.88;;;3.20;;
16766;SDS011;8501;49.926;8.404;2023-05-07T03:42:23;3.63;;;3.20;;
16766;SDS011;8501;49.926;8.404;2023-05-07T03:44:49;5.10;;;2.65;;
16766;SDS011;8501;49.926;8.404;2023-05-07T03:47:14;3.60;;;3.20;;
16766;SDS011;8501;49.926;8.404;2023-05-07T03:49:40;5.10;;;3.38;;
16766;SDS011;8501;49.926;8.404;2023-05-07T03:52:05;4.40;;;3.10;;
16766;SDS011;8501;49.926;8.404;2023-05-07T03:54:31;3.67;;;3.13;;
16766;SDS011;8501;49.926;8.404;2023-05-07T03:56:57;5.15;;;3.40;;
16766;SDS011;8501;49.926;8.404;2023-05-07T03:59:22;3.53;;;3.22;;
16766;SDS011;8501;49.926;8.404;2023-05-07T04:01:48;5.70;;;3.47;;
16766;SDS011;8501;49.926;8.404;2023-05-07T04:04:14;4.50;;;3.10;;
16766;SDS011;8501;49.926;8.404;2023-05-07T04:06:39;4.38;;;3.17;;
16766;SDS011;8501;49.926;8.404;2023-05-07T04:09:06;3.55;;;3.25;;
16766;SDS011;8501;49.926;8.404;2023-05-07T04:11:31;4.70;;;3.15;;
16766;SDS011;8501;49.926;8.404;2023-05-07T04:13:57;6.55;;;3.25;;
16766;SDS011;8501;49.926;8.404;2023-05-07T04:16:22;4.47;;;3.15;;
16766;SDS011;8501;49.926;8.404;2023-05-07T04:18:48;3.65;;;3.30;;
16766;SDS011;8501;49.926;8.404;2023-05-07T04:21:14;4.25;;;3.28;;
16766;SDS011;8501;49.926;8.404;2023-05-07T04:23:44;4.05;;;3.30;;
16766;SDS011;8501;49.926;8.404;2023-05-07T04:26:10;4.85;;;3.80;;
16766;SDS011;8501;49.926;8.404;2023-05-07T04:28:36;5.85;;;3.63;;
16766;SDS011;8501;49.926;8.404;2023-05-07T04:31:01;3.53;;;3.17;;
16766;SDS011;8501;49.926;8.404;2023-05-07T04:33:27;4.32;;;3.60;;
16766;SDS011;8501;49.926;8.404;2023-05-07T04:35:53;4.65;;;3.63;;
16766;SDS011;8501;49.926;8.404;2023-05-07T04:38:18;3.47;;;3.13;;
16766;SDS011;8501;49.926;8.404;2023-05-07T04:40:44;5.10;;;3.45;;
16766;SDS011;8501;49.926;8.404;2023-05-07T04:43:09;4.70;;;3.75;;
16766;SDS011;8501;49.926;8.404;2023-05-07T04:45:35;6.88;;;4.03;;
16766;SDS011;8501;49.926;8.404;2023-05-07T04:48:01;4.95;;;3.65;;
16766;SDS011;8501;49.926;8.404;2023-05-07T04:50:27;5.75;;;3.83;;
16766;SDS011;8501;49.926;8.404;2023-05-07T04:52:53;5.72;;;3.17;;
16766;SDS011;8501;49.926;8.404;2023-05-07T04:55:18;4.05;;;3.30;;
16766;SDS011;8501;49.926;8.404;2023-05-07T04:57:44;3.45;;;3.05;;
16766;SDS011;8501;49.926;8.404;2023-05-07T05:00:10;4.57;;;3.20;;
16766;SDS011;8501;49.926;8.404;2023-05-07T05:02:39;4.20;;;3.40;;
16766;SDS011;8501;49.926;8.404;2023-05-07T05:05:05;5.50;;;3.30;;
16766;SDS011;8501;49.926;8.404;2023-05-07T05:07:31;4.60;;;3.65;;
16766;SDS011;8501;49.926;8.404;2023-05-07T05:09:56;3.67;;;3.33;;
16766;SDS011;8501;49.926;8.404;2023-05-07T05:12:22;3.80;;;3.40;;
16766;SDS011;8501;49.926;8.404;2023-05-07T05:14:48;4.07;;;3.30;;
16766;SDS011;8501;49.926;8.404;2023-05-07T05:17:13;4.15;;;3.38;;
16766;SDS011;8501;49.926;8.404;2023-05-07T05:19:39;4.32;;;3.40;;
16766;SDS011;8501;49.926;8.404;2023-05-07T05:22:04;4.18;;;3.25;;
16766;SDS011;8501;49.926;8.404;2023-05-07T05:24:30;4.25;;;3.42;;
16766;SDS011;8501;49.926;8.404;2023-05-07T05:26:56;3.72;;;3.33;;
16766;SDS011;8501;49.926;8.404;2023-05-07T05:29:22;5.93;;;3.20;;
16766;SDS011;8501;49.926;8.404;2023-05-07T05:31:47;3.40;;;3.10;;
16766;SDS011;8501;49.926;8.404;2023-05-07T05:34:13;4.00;;;3.35;;
16766;SDS011;8501;49.926;8.404;2023-05-07T05:36:38;4.45;;;3.50;;
16766;SDS011;8501;49.926;8.404;2023-05-07T05:39:04;5.10;;;3.55;;
16766;SDS011;8501;49.926;8.404;2023-05-07T05:41:30;4.60;;;3.58;;
16766;SDS011;8501;49.926;8.404;2023-05-07T05:43:55;4.43;;;3.30;;
16766;SDS011;8501;49.926;8.404;2023-05-07T05:46:21;4.30;;;3.45;;
16766;SDS011;8501;49.926;8.404;2023-05-07T05:48:46;4.70;;;3.10;;
16766;SDS011;8501;49.926;8.404;2023-05-07T05:51:12;4.45;;;3.20;;
16766;SDS011;8501;49.926;8.404;2023-05-07T05:53:37;3.50;;;3.20;;
16766;SDS011;8501;49.926;8.404;2023-05-07T05:56:03;3.83;;;3.00;;
16766;SDS011;8501;49.926;8.404;2023-05-07T05:58:29;4.30;;;3.35;;
16766;SDS011;8501;49.926;8.404;2023-05-07T06:00:55;4.93;;;3.63;;
16766;SDS011;8501;49.926;8.404;2023-05-07T06:03:21;3.75;;;3.22;;
16766;SDS011;8501;49.926;8.404;2023-05-07T06:05:46;4.55;;;3.17;;
16766;SDS011;8501;49.926;8.404;2023-05-07T06:08:12;4.55;;;3.67;;
16766;SDS011;8501;49.926;8.404;2023-05-07T06:10:38;4.03;;;3.50;;
16766;SDS011;8501;49.926;8.404;2023-05-07T06:13:04;4.95;;;3.30;;
16766;SDS011;8501;49.926;8.404;2023-05-07T06:15:30;3.88;;;3.47;;
16766;SDS011;8501;49.926;8.404;2023-05-07T06:17:55;4.60;;;3.40;;
16766;SDS011;8501;49.926;8.404;2023-05-07T06:20:22;5.15;;;3.58;;
16766;SDS011;8501;49.926;8.404;2023-05-07T06:22:48;5.22;;;3.80;;
16766;SDS011;8501;49.926;8.404;2023-05-07T06:25:14;5.95;;;3.75;;
16766;SDS011;8501;49.926;8.404;2023-05-07T06:27:39;4.43;;;3.30;;
16766;SDS011;8501;49.926;8.404;2023-05-07T06:30:05;4.07;;;3.58;;
16766;SDS011;8501;49.926;8.404;2023-05-07T06:32:31;5.85;;;3.85;;
16766;SDS011;8501;49.926;8.404;2023-05-07T06:34:57;5.63;;;4.13;;
16766;SDS011;8501;49.926;8.404;2023-05-07T06:37:22;4.85;;;3.80;;
16766;SDS011;8501;49.926;8.404;2023-05-07T06:39:48;5.35;;;3.40;;
16766;SDS011;8501;49.926;8.404;2023-05-07T06:42:13;4.60;;;3.75;;
16766;SDS011;8501;49.926;8.404;2023-05-07T06:44:39;4.43;;;3.90;;
16766;SDS011;8501;49.926;8.404;2023-05-07T06:47:05;5.80;;;3.70;;
16766;SDS011;8501;49.926;8.404;2023-05-07T06:49:30;4.43;;;3.78;;
16766;SDS011;8501;49.926;8.404;2023-05-07T06:51:56;3.78;;;3.38;;
16766;SDS011;8501;49.926;8.404;2023-05-07T06:54:22;4.60;;;3.65;;
16766;SDS011;8501;49.926;8.404;2023-05-07T06:56:48;4.07;;;3.67;;
16766;SDS011;8501;49.926;8.404;2023-05-07T06:59:13;4.28;;;3.72;;
16766;SDS011;8501;49.926;8.404;2023-05-07T07:01:39;5.05;;;3.78;;
16766;SDS011;8501;49.926;8.404;2023-05-07T07:04:05;4.13;;;3.60;;
16766;SDS011;8501;49.926;8.404;2023-05-07T07:06:30;4.32;;;3.60;;
16766;SDS011;8501;49.926;8.404;2023-05-07T07:08:57;5.15;;;3.70;;
16766;SDS011;8501;49.926;8.404;2023-05-07T07:11:23;4.30;;;3.85;;
16766;SDS011;8501;49.926;8.404;2023-05-07T07:13:48;4.20;;;3.80;;
16766;SDS011;8501;49.926;8.404;2023-05-07T07:16:14;5.28;;;3.80;;
16766;SDS011;8501;49.926;8.404;2023-05-07T07:18:39;4.32;;;3.83;;
16766;SDS011;8501;49.926;8.404;2023-05-07T07:21:05;5.57;;;3.50;;
16766;SDS011;8501;49.926;8.404;2023-05-07T07:23:30;5.82;;;3.60;;
16766;SDS011;8501;49.926;8.404;2023-05-07T07:25:56;5.57;;;4.05;;
16766;SDS011;8501;49.926;8.404;2023-05-07T07:28:21;5.00;;;4.22;;
16766;SDS011;8501;49.926;8.404;2023-05-07T07:30:47;3.97;;;3.58;;
16766;SDS011;8501;49.926;8.404;2023-05-07T07:33:13;4.57;;;4.03;;
16766;SDS011;8501;49.926;8.404;2023-05-07T07:35:39;4.05;;;3.63;;
16766;SDS011;8501;49.926;8.404;2023-05-07T07:38:05;4.85;;;4.10;;
16766;SDS011;8501;49.926;8.404;2023-05-07T07:40:30;5.43;;;4.10;;
16766;SDS011;8501;49.926;8.404;2023-05-07T07:42:56;4.82;;;4.20;;
16766;SDS011;8501;49.926;8.404;2023-05-07T07:45:22;6.55;;;4.20;;
16766;SDS011;8501;49.926;8.404;2023-05-07T07:47:48;4.85;;;4.00;;
16766;SDS011;8501;49.926;8.404;2023-05-07T07:50:13;4.88;;;3.85;;
16766;SDS011;8501;49.926;8.404;2023-05-07T07:52:39;5.15;;;3.92;;
16766;SDS011;8501;49.926;8.404;2023-05-07T07:55:05;4.68;;;3.95;;
16766;SDS011;8501;49.926;8.404;2023-05-07T07:57:31;6.47;;;4.43;;
16766;SDS011;8501;49.926;8.404;2023-05-07T07:59:57;5.60;;;4.22;;
16766;SDS011;8501;49.926;8.404;2023-05-07T08:02:23;5.05;;;4.47;;
16766;SDS011;8501;49.926;8.404;2023-05-07T08:04:48;4.90;;;4.38;;
16766;SDS011;8501;49.926;8.404;2023-05-07T08:07:14;4.80;;;4.30;;
16766;SDS011;8501;49.926;8.404;2023-05-07T08:09:40;5.05;;;4.53;;
16766;SDS011;8501;49.926;8.404;2023-05-07T08:12:06;5.70;;;4.00;;
16766;SDS011;8501;49.926;8.404;2023-05-07T08:14:32;5.70;;;4.22;;
16766;SDS011;8501;49.926;8.404;2023-05-07T08:16:58;4.90;;;4.40;;
16766;SDS011;8501;49.926;8.404;2023-05-07T08:19:24;6.25;;;4.25;;
16766;SDS011;8501;49.926;8.404;2023-05-07T08:21:50;5.10;;;4.60;;
16766;SDS011;8501;49.926;8.404;2023-05-07T08:24:15;6.97;;;4.68;;
16766;SDS011;8501;49.926;8.404;2023-05-07T08:26:41;5.05;;;4.55;;
16766;SDS011;8501;49.926;8.404;2023-05-07T08:29:07;6.47;;;4.72;;
16766;SDS011;8501;49.926;8.404;2023-05-07T08:31:32;5.90;;;4.43;;
16766;SDS011;8501;49.926;8.404;2023-05-07T08:33:58;5.40;;;4.65;;
16766;SDS011;8501;49.926;8.404;2023-05-07T08:36:24;5.18;;;4.68;;
16766;SDS011;8501;49.926;8.404;2023-05-07T08:38:50;5.35;;;4.70;;
16766;SDS011;8501;49.926;8.404;2023-05-07T08:41:16;5.28;;;4.43;;
16766;SDS011;8501;49.926;8.404;2023-05-07T08:43:42;6.10;;;4.65;;
16766;SDS011;8501;49.926;8.404;2023-05-07T08:46:12;5.25;;;4.75;;
16766;SDS011;8501;49.926;8.404;2023-05-07T08:48:42;6.25;;;4.97;;
16766;SDS011;8501;49.926;8.404;2023-05-07T08:51:08;8.77;;;7.30;;
16766;SDS011;8501;49.926;8.404;2023-05-07T08:53:40;7.57;;;5.80;;
16766;SDS011;8501;49.926;8.404;2023-05-07T08:56:07;7.18;;;4.80;;
16766;SDS011;8501;49.926;8.404;2023-05-07T08:58:34;5.00;;;4.60;;
16766;SDS011;8501;49.926;8.404;2023-05-07T09:01:03;6.00;;;4.88;;
16766;SDS011;8501;49.926;8.404;2023-05-07T09:03:32;5.15;;;4.65;;
16766;SDS011;8501;49.926;8.404;2023-05-07T09:05:58;5.25;;;4.75;;
16766;SDS011;8501;49.926;8.404;2023-05-07T09:08:24;7.20;;;5.32;;
16766;SDS011;8501;49.926;8.404;2023-05-07T09:10:51;8.02;;;5.30;;
16766;SDS011;8501;49.926;8.404;2023-05-07T09:13:17;6.80;;;5.13;;
16766;SDS011;8501;49.926;8.404;2023-05-07T09:15:43;6.05;;;5.05;;
16766;SDS011;8501;49.926;8.404;2023-05-07T09:18:08;6.72;;;4.93;;
16766;SDS011;8501;49.926;8.404;2023-05-07T09:20:36;5.50;;;4.80;;
16766;SDS011;8501;49.926;8.404;2023-05-07T09:23:02;5.30;;;4.80;;
16766;SDS011;8501;49.926;8.404;2023-05-07T09:25:31;5.93;;;5.32;;
16766;SDS011;8501;49.926;8.404;2023-05-07T09:27:57;5.78;;;4.82;;
16766;SDS011;8501;49.926;8.404;2023-05-07T09:30:27;5.55;;;5.05;;
16766;SDS011;8501;49.926;8.404;2023-05-07T09:32:57;5.15;;;4.65;;
16766;SDS011;8501;49.926;8.404;2023-05-07T09:35:24;6.50;;;5.07;;
16766;SDS011;8501;49.926;8.404;2023-05-07T09:37:52;5.40;;;4.90;;
16766;SDS011;8501;49.926;8.404;2023-05-07T09:40:20;5.55;;;5.05;;
16766;SDS011;8501;49.926;8.404;2023-05-07T09:42:46;6.57;;;5.35;;
16766;SDS011;8501;49.926;8.404;2023-05-07T09:45:13;5.70;;;4.75;;
16766;SDS011;8501;49.926;8.404;2023-05-07T09:47:38;5.30;;;4.80;;
16766;SDS011;8501;49.926;8.404;2023-05-07T09:50:06;5.55;;;5.05;;
16766;SDS011;8501;49.926;8.404;2023-05-07T09:52:35;5.55;;;5.05;;
16766;SDS011;8501;49.926;8.404;2023-05-07T09:55:01;5.50;;;5.00;;
16766;SDS011;8501;49.926;8.404;2023-05-07T09:57:28;5.75;;;5.15;;
16766;SDS011;8501;49.926;8.404;2023-05-07T09:59:55;5.55;;;4.95;;
16766;SDS011;8501;49.926;8.404;2023-05-07T10:02:22;5.82;;;5.32;;
16766;SDS011;8501;49.926;8.404;2023-05-07T10:04:50;6.45;;;5.50;;
16766;SDS011;8501;49.926;8.404;2023-05-07T10:07:17;5.75;;;5.10;;
16766;SDS011;8501;49.926;8.404;2023-05-07T10:09:42;8.38;;;4.90;;
16766;SDS011;8501;49.926;8.404;2023-05-07T10:12:09;5.65;;;4.95;;
16766;SDS011;8501;49.926;8.404;2023-05-07T10:14:35;5.25;;;4.75;;
16766;SDS011;8501;49.926;8.404;2023-05-07T10:17:02;5.60;;;4.95;;
16766;SDS011;8501;49.926;8.404;2023-05-07T10:19:27;5.68;;;5.13;;
16766;SDS011;8501;49.926;8.404;2023-05-07T10:21:55;5.88;;;5.18;;
16766;SDS011;8501;49.926;8.404;2023-05-07T10:24:25;7.30;;;5.07;;
16766;SDS011;8501;49.926;8.404;2023-05-07T10:26:52;6.88;;;5.22;;
16766;SDS011;8501;49.926;8.404;2023-05-07T10:34:54;5.35;;;4.85;;
16766;SDS011;8501;49.926;8.404;2023-05-07T10:37:23;5.30;;;4.80;;
16766;SDS011;8501;49.926;8.404;2023-05-07T10:39:50;5.50;;;4.90;;
16766;SDS011;8501;49.926;8.404;2023-05-07T10:42:17;5.20;;;4.68;;
16766;SDS011;8501;49.926;8.404;2023-05-07T10:44:42;4.90;;;4.50;;
16766;SDS011;8501;49.926;8.404;2023-05-07T10:47:09;5.45;;;4.60;;
16766;SDS011;8501;49.926;8.404;2023-05-07T10:50:19;6.38;;;4.88;;
16766;SDS011;8501;49.926;8.404;2023-05-07T10:52:29;7.55;;;4.70;;
16766;SDS011;8501;49.926;8.404;2023-05-07T10:57:39;5.35;;;4.85;;
16766;SDS011;8501;49.926;8.404;2023-05-07T11:00:47;6.00;;;5.10;;
16766;SDS011;8501;49.926;8.404;2023-05-07T11:05:26;5.20;;;4.70;;
16766;SDS011;8501;49.926;8.404;2023-05-07T11:07:55;6.97;;;4.78;;
16766;SDS011;8501;49.926;8.404;2023-05-07T11:10:50;5.35;;;4.85;;
16766;SDS011;8501;49.926;8.404;2023-05-07T11:13:18;5.35;;;4.75;;
16766;SDS011;8501;49.926;8.404;2023-05-07T11:16:05;5.00;;;4.50;;
16766;SDS011;8501;49.926;8.404;2023-05-07T11:18:49;7.00;;;4.10;;
16766;SDS011;8501;49.926;8.404;2023-05-07T11:24:05;5.20;;;4.70;;
16766;SDS011;8501;49.926;8.404;2023-05-07T11:26:41;5.88;;;4.43;;
16766;SDS011;8501;49.926;8.404;2023-05-07T11:29:13;4.60;;;4.20;;
16766;SDS011;8501;49.926;8.404;2023-05-07T11:31:41;5.20;;;4.18;;
16766;SDS011;8501;49.926;8.404;2023-05-07T11:34:07;5.13;;;4.10;;
16766;SDS011;8501;49.926;8.404;2023-05-07T11:36:33;4.45;;;3.50;;
16766;SDS011;8501;49.926;8.404;2023-05-07T11:38:59;5.35;;;4.20;;
16766;SDS011;8501;49.926;8.404;2023-05-07T11:41:34;5.57;;;4.05;;
16766;SDS011;8501;49.926;8.404;2023-05-07T11:44:04;5.05;;;4.30;;
16766;SDS011;8501;49.926;8.404;2023-05-07T11:46:30;4.60;;;4.20;;
16766;SDS011;8501;49.926;8.404;2023-05-07T11:48:56;4.55;;;4.03;;
16766;SDS011;8501;49.926;8.404;2023-05-07T11:51:24;4.85;;;4.05;;
16766;SDS011;8501;49.926;8.404;2023-05-07T11:53:51;4.10;;;3.70;;
16766;SDS011;8501;49.926;8.404;2023-05-07T11:56:17;3.88;;;3.35;;
16766;SDS011;8501;49.926;8.404;2023-05-07T11:58:44;4.60;;;3.80;;
16766;SDS011;8501;49.926;8.404;2023-05-07T12:01:11;4.28;;;3.88;;
16766;SDS011;8501;49.926;8.404;2023-05-07T12:03:41;4.00;;;3.55;;
16766;SDS011;8501;49.926;8.404;2023-05-07T12:06:10;5.32;;;3.70;;
16766;SDS011;8501;49.926;8.404;2023-05-07T12:08:37;4.15;;;3.65;;
16766;SDS011;8501;49.926;8.404;2023-05-07T12:11:06;4.78;;;3.55;;
16766;SDS011;8501;49.926;8.404;2023-05-07T12:13:33;4.95;;;3.25;;
16766;SDS011;8501;49.926;8.404;2023-05-07T12:15:59;3.63;;;3.33;;
16766;SDS011;8501;49.926;8.404;2023-05-07T12:18:25;5.22;;;3.60;;
16766;SDS011;8501;49.926;8.404;2023-05-07T12:20:51;4.15;;;3.65;;
16766;SDS011;8501;49.926;8.404;2023-05-07T12:23:17;4.05;;;3.47;;
16766;SDS011;8501;49.926;8.404;2023-05-07T12:25:43;5.20;;;3.28;;
16766;SDS011;8501;49.926;8.404;2023-05-07T12:28:12;4.00;;;3.30;;
16766;SDS011;8501;49.926;8.404;2023-05-07T12:30:42;6.15;;;3.95;;
16766;SDS011;8501;49.926;8.404;2023-05-07T12:33:09;3.70;;;3.40;;
16766;SDS011;8501;49.926;8.404;2023-05-07T12:35:41;3.13;;;2.78;;
16766;SDS011;8501;49.926;8.404;2023-05-07T12:38:08;3.70;;;2.90;;
16766;SDS011;8501;49.926;8.404;2023-05-07T12:40:39;3.40;;;2.90;;
16766;SDS011;8501;49.926;8.404;2023-05-07T12:43:05;3.13;;;2.70;;
16766;SDS011;8501;49.926;8.404;2023-05-07T12:45:31;3.70;;;2.80;;
16766;SDS011;8501;49.926;8.404;2023-05-07T12:48:03;3.88;;;2.80;;
16766;SDS011;8501;49.926;8.404;2023-05-07T12:50:32;3.28;;;2.97;;
16766;SDS011;8501;49.926;8.404;2023-05-07T12:52:58;3.40;;;3.10;;
16766;SDS011;8501;49.926;8.404;2023-05-07T12:55:24;3.00;;;2.70;;
16766;SDS011;8501;49.926;8.404;2023-05-07T12:57:49;3.63;;;2.85;;
16766;SDS011;8501;49.926;8.404;2023-05-07T13:00:16;3.28;;;2.90;;
16766;SDS011;8501;49.926;8.404;2023-05-07T13:02:42;3.35;;;2.72;;
16766;SDS011;8501;49.926;8.404;2023-05-07T13:05:09;3.38;;;2.95;;
16766;SDS011;8501;49.926;8.404;2023-05-07T13:07:35;3.40;;;2.65;;
16766;SDS011;8501;49.926;8.404;2023-05-07T13:10:01;2.65;;;2.42;;
16766;SDS011;8501;49.926;8.404;2023-05-07T13:12:27;3.25;;;2.95;;
16766;SDS011;8501;49.926;8.404;2023-05-07T13:14:53;3.95;;;2.30;;
16766;SDS011;8501;49.926;8.404;2023-05-07T13:17:18;2.90;;;2.55;;
16766;SDS011;8501;49.926;8.404;2023-05-07T13:19:44;2.70;;;2.50;;
16766;SDS011;8501;49.926;8.404;2023-05-07T13:22:09;3.05;;;2.75;;
16766;SDS011;8501;49.926;8.404;2023-05-07T13:24:35;3.55;;;2.80;;
16766;SDS011;8501;49.926;8.404;2023-05-07T13:27:01;2.80;;;2.60;;
16766;SDS011;8501;49.926;8.404;2023-05-07T13:29:27;3.33;;;3.00;;
16766;SDS011;8501;49.926;8.404;2023-05-07T13:31:56;4.80;;;3.13;;
16766;SDS011;8501;49.926;8.404;2023-05-07T13:34:22;4.88;;;3.35;;
16766;SDS011;8501;49.926;8.404;2023-05-07T13:36:47;3.55;;;3.20;;
16766;SDS011;8501;49.926;8.404;2023-05-07T13:39:13;3.70;;;3.40;;
16766;SDS011;8501;49.926;8.404;2023-05-07T13:41:39;4.22;;;3.40;;
16766;SDS011;8501;49.926;8.404;2023-05-07T13:44:04;4.05;;;3.67;;
16766;SDS011;8501;49.926;8.404;2023-05-07T13:46:30;3.47;;;3.17;;
16766;SDS011;8501;49.926;8.404;2023-05-07T13:48:55;4.28;;;2.90;;
16766;SDS011;8501;49.926;8.404;2023-05-07T13:51:21;3.25;;;2.95;;
16766;SDS011;8501;49.926;8.404;2023-05-07T13:53:47;4.00;;;2.90;;
16766;SDS011;8501;49.926;8.404;2023-05-07T13:56:12;3.65;;;2.75;;
16766;SDS011;8501;49.926;8.404;2023-05-07T13:58:39;3.45;;;2.80;;
16766;SDS011;8501;49.926;8.404;2023-05-07T14:01:05;2.90;;;2.70;;
16766;SDS011;8501;49.926;8.404;2023-05-07T14:03:31;3.95;;;2.97;;
16766;SDS011;8501;49.926;8.404;2023-05-07T14:05:58;3.83;;;2.85;;
16766;SDS011;8501;49.926;8.404;2023-05-07T14:08:24;3.08;;;2.72;;
16766;SDS011;8501;49.926;8.404;2023-05-07T14:10:50;2.72;;;2.53;;
16766;SDS011;8501;49.926;8.404;2023-05-07T14:13:16;3.10;;;2.80;;
16766;SDS011;8501;49.926;8.404;2023-05-07T14:15:42;3.03;;;2.72;;
16766;SDS011;8501;49.926;8.404;2023-05-07T14:18:11;4.15;;;3.20;;
16766;SDS011;8501;49.926;8.404;2023-05-07T14:20:39;3.40;;;2.90;;
16766;SDS011;8501;49.926;8.404;2023-05-07T14:23:05;3.95;;;3.05;;
16766;SDS011;8501;49.926;8.404;2023-05-07T14:25:31;3.03;;;2.75;;
16766;SDS011;8501;49.926;8.404;2023-05-07T14:27:56;3.38;;;3.08;;
16766;SDS011;8501;49.926;8.404;2023-05-07T14:30:22;5.25;;;2.90;;
16766;SDS011;8501;49.926;8.404;2023-05-07T14:32:49;4.07;;;3.00;;
16766;SDS011;8501;49.926;8.404;2023-05-07T14:35:15;3.38;;;2.85;;
16766;SDS011;8501;49.926;8.404;2023-05-07T14:37:41;3.20;;;2.90;;
16766;SDS011;8501;49.926;8.404;2023-05-07T14:40:07;3.08;;;2.78;;
16766;SDS011;8501;49.926;8.404;2023-05-07T14:42:33;3.50;;;2.95;;
16766;SDS011;8501;49.926;8.404;2023-05-07T14:44:59;3.45;;;3.15;;
16766;SDS011;8501;49.926;8.404;2023-05-07T14:47:24;3.80;;;3.38;;
16766;SDS011;8501;49.926;8.404;2023-05-07T14:49:50;3.25;;;2.95;;
16766;SDS011;8501;49.926;8.404;2023-05-07T14:52:16;3.78;;;3.00;;
16766;SDS011;8501;49.926;8.404;2023-05-07T14:54:41;3.58;;;3.28;;
16766;SDS011;8501;49.926;8.404;2023-05-07T14:57:08;4.07;;;3.03;;
16766;SDS011;8501;49.926;8.404;2023-05-07T14:59:35;4.22;;;2.90;;
16766;SDS011;8501;49.926;8.404;2023-05-07T15:02:01;3.88;;;3.00;;
16766;SDS011;8501;49.926;8.404;2023-05-07T15:04:26;3.30;;;3.00;;
16766;SDS011;8501;49.926;8.404;2023-05-07T15:06:52;4.38;;;3.30;;
16766;SDS011;8501;49.926;8.404;2023-05-07T15:09:18;4.30;;;3.15;;